sensor_id;sensor_type;location;lat;lon;timestamp;P1;durP1;ratioP1;P2;durP2;ratioP2
48647;SDS011;34437;-33.956;151.076;2023-05-07T00:00:00;2.50;;;1.40;;
48647;SDS011;34437;-33.956;151.076;2023-05-07T00:02:23;4.97;;;2.00;;
48647;SDS011;34437;-33.956;151.076;2023-05-07T00:04:46;2.83;;;1.48;;
48647;SDS011;34437;-33.956;151.076;2023-05-07T00:07:08;2.88;;;1.55;;
48647;SDS011;34437;-33.956;151.076;2023-05-07T00:09:31;5.40;;;1.35;;
48647;SDS011;34437;-33.956;151.076;2023-05-07T00:11:53;1.52;;;1.20;;
48647;SDS011;34437;-33.956;151.076;2023-05-07T00:14:16;2.88;;;1.33;;
48647;SDS011;34437;-33.956;151.076;2023-05-07T00:16:38;2.50;;;1.40;;
48647;SDS011;34437;-33.956;151.076;2023-05-07T00:19:01;2.22;;;1.13;;
48647;SDS011;34437;-33.956;151.076;2023-05-07T00:21:23;2.08;;;1.10;;
48647;SDS011;34437;-33.956;151.076;2023-05-07T00:23:47;3.17;;;1.30;;
48647;SDS011;34437;-33.956;151.076;2023-05-07T00:26:09;1.80;;;1.23;;
48647;SDS011;34437;-33.956;151.076;2023-05-07T00:28:32;2.00;;;1.20;;
48647;SDS011;34437;-33.956;151.076;2023-05-07T00:30:54;2.65;;;1.20;;
48647;SDS011;34437;-33.956;151.076;2023-05-07T00:33:17;3.30;;;1.40;;
48647;SDS011;34437;-33.956;151.076;2023-05-07T00:35:41;2.35;;;1.70;;
48647;SDS011;34437;-33.956;151.076;2023-05-07T00:38:04;2.00;;;1.42;;
48647;SDS011;34437;-33.956;151.076;2023-05-07T00:40:26;2.10;;;1.20;;
48647;SDS011;34437;-33.956;151.076;2023-05-07T00:42:50;3.10;;;1.63;;
48647;SDS011;34437;-33.956;151.076;2023-05-07T00:45:17;1.58;;;1.15;;
48647;SDS011;34437;-33.956;151.076;2023-05-07T00:47:40;1.85;;;1.20;;
48647;SDS011;34437;-33.956;151.076;2023-05-07T00:50:03;2.97;;;1.67;;
48647;SDS011;34437;-33.956;151.076;2023-05-07T00:52:26;2.45;;;1.50;;
48647;SDS011;34437;-33.956;151.076;2023-05-07T00:54:50;2.85;;;1.42;;
48647;SDS011;34437;-33.956;151.076;2023-05-07T00:57:13;1.90;;;1.20;;
48647;SDS011;34437;-33.956;151.076;2023-05-07T00:59:36;1.70;;;1.20;;
48647;SDS011;34437;-33.956;151.076;2023-05-07T01:02:00;1.75;;;1.20;;
48647;SDS011;34437;-33.956;151.076;2023-05-07T01:04:22;1.92;;;1.20;;
48647;SDS011;34437;-33.956;151.076;2023-05-07T01:06:45;1.63;;;1.15;;
48647;SDS011;34437;-33.956;151.076;2023-05-07T01:09:08;2.25;;;1.33;;
48647;SDS011;34437;-33.956;151.076;2023-05-07T01:11:30;2.42;;;1.40;;
48647;SDS011;34437;-33.956;151.076;2023-05-07T01:13:53;1.58;;;1.10;;
48647;SDS011;34437;-33.956;151.076;2023-05-07T01:16:16;2.47;;;1.13;;
48647;SDS011;34437;-33.956;151.076;2023-05-07T01:18:38;1.30;;;1.02;;
48647;SDS011;34437;-33.956;151.076;2023-05-07T01:21:01;1.05;;;0.90;;
48647;SDS011;34437;-33.956;151.076;2023-05-07T01:23:27;4.22;;;1.10;;
48647;SDS011;34437;-33.956;151.076;2023-05-07T01:25:53;2.80;;;1.20;;
48647;SDS011;34437;-33.956;151.076;2023-05-07T01:28:16;2.05;;;1.27;;
48647;SDS011;34437;-33.956;151.076;2023-05-07T01:30:38;1.90;;;1.13;;
48647;SDS011;34437;-33.956;151.076;2023-05-07T01:33:09;1.73;;;1.13;;
48647;SDS011;34437;-33.956;151.076;2023-05-07T01:35:36;2.17;;;1.38;;
48647;SDS011;34437;-33.956;151.076;2023-05-07T01:38:01;1.08;;;0.98;;
48647;SDS011;34437;-33.956;151.076;2023-05-07T01:40:26;1.63;;;1.20;;
48647;SDS011;34437;-33.956;151.076;2023-05-07T01:42:49;1.67;;;0.82;;
48647;SDS011;34437;-33.956;151.076;2023-05-07T01:45:12;1.52;;;1.08;;
48647;SDS011;34437;-33.956;151.076;2023-05-07T01:47:35;1.45;;;1.05;;
48647;SDS011;34437;-33.956;151.076;2023-05-07T01:49:58;0.88;;;0.80;;
48647;SDS011;34437;-33.956;151.076;2023-05-07T01:52:21;1.85;;;1.20;;
48647;SDS011;34437;-33.956;151.076;2023-05-07T01:54:45;1.33;;;1.00;;
48647;SDS011;34437;-33.956;151.076;2023-05-07T01:57:07;2.03;;;0.95;;
48647;SDS011;34437;-33.956;151.076;2023-05-07T01:59:30;1.65;;;0.90;;
48647;SDS011;34437;-33.956;151.076;2023-05-07T02:01:53;1.85;;;1.10;;
48647;SDS011;34437;-33.956;151.076;2023-05-07T02:04:15;1.42;;;0.93;;
48647;SDS011;34437;-33.956;151.076;2023-05-07T02:06:38;1.35;;;1.00;;
48647;SDS011;34437;-33.956;151.076;2023-05-07T02:09:00;0.82;;;0.73;;
48647;SDS011;34437;-33.956;151.076;2023-05-07T02:11:22;2.13;;;1.00;;
48647;SDS011;34437;-33.956;151.076;2023-05-07T02:13:46;2.20;;;1.23;;
48647;SDS011;34437;-33.956;151.076;2023-05-07T02:16:08;1.50;;;0.93;;
48647;SDS011;34437;-33.956;151.076;2023-05-07T02:18:31;2.42;;;1.17;;
48647;SDS011;34437;-33.956;151.076;2023-05-07T02:20:54;1.15;;;0.85;;
48647;SDS011;34437;-33.956;151.076;2023-05-07T02:23:16;1.67;;;1.00;;
48647;SDS011;34437;-33.956;151.076;2023-05-07T02:25:39;1.95;;;1.00;;
48647;SDS011;34437;-33.956;151.076;2023-05-07T02:28:01;1.17;;;0.80;;
48647;SDS011;34437;-33.956;151.076;2023-05-07T02:30:24;1.63;;;1.13;;
48647;SDS011;34437;-33.956;151.076;2023-05-07T02:32:46;1.10;;;0.80;;
48647;SDS011;34437;-33.956;151.076;2023-05-07T02:35:09;2.17;;;1.42;;
48647;SDS011;34437;-33.956;151.076;2023-05-07T02:37:31;2.08;;;1.23;;
48647;SDS011;34437;-33.956;151.076;2023-05-07T02:39:54;1.60;;;1.25;;
48647;SDS011;34437;-33.956;151.076;2023-05-07T02:42:16;2.88;;;1.13;;
48647;SDS011;34437;-33.956;151.076;2023-05-07T02:44:39;1.30;;;1.05;;
48647;SDS011;34437;-33.956;151.076;2023-05-07T02:47:01;3.72;;;1.27;;
48647;SDS011;34437;-33.956;151.076;2023-05-07T02:49:24;2.47;;;1.40;;
48647;SDS011;34437;-33.956;151.076;2023-05-07T02:51:46;2.20;;;1.40;;
48647;SDS011;34437;-33.956;151.076;2023-05-07T02:54:08;2.88;;;1.58;;
48647;SDS011;34437;-33.956;151.076;2023-05-07T02:56:31;1.85;;;1.40;;
48647;SDS011;34437;-33.956;151.076;2023-05-07T02:58:53;2.72;;;1.50;;
48647;SDS011;34437;-33.956;151.076;2023-05-07T03:01:16;2.75;;;1.50;;
48647;SDS011;34437;-33.956;151.076;2023-05-07T03:03:38;2.45;;;1.35;;
48647;SDS011;34437;-33.956;151.076;2023-05-07T03:06:01;1.88;;;1.52;;
48647;SDS011;34437;-33.956;151.076;2023-05-07T03:08:24;2.33;;;1.17;;
48647;SDS011;34437;-33.956;151.076;2023-05-07T03:10:46;1.40;;;1.00;;
48647;SDS011;34437;-33.956;151.076;2023-05-07T03:13:09;1.88;;;1.23;;
48647;SDS011;34437;-33.956;151.076;2023-05-07T03:15:31;1.17;;;0.93;;
48647;SDS011;34437;-33.956;151.076;2023-05-07T03:17:54;1.60;;;1.40;;
48647;SDS011;34437;-33.956;151.076;2023-05-07T03:20:16;2.00;;;1.23;;
48647;SDS011;34437;-33.956;151.076;2023-05-07T03:22:39;2.05;;;1.20;;
48647;SDS011;34437;-33.956;151.076;2023-05-07T03:25:01;1.63;;;1.20;;
48647;SDS011;34437;-33.956;151.076;2023-05-07T03:27:25;1.47;;;1.00;;
48647;SDS011;34437;-33.956;151.076;2023-05-07T03:29:47;2.60;;;1.30;;
48647;SDS011;34437;-33.956;151.076;2023-05-07T03:32:10;1.75;;;1.35;;
48647;SDS011;34437;-33.956;151.076;2023-05-07T03:34:32;1.48;;;1.20;;
48647;SDS011;34437;-33.956;151.076;2023-05-07T03:36:55;1.08;;;0.90;;
48647;SDS011;34437;-33.956;151.076;2023-05-07T03:39:17;1.65;;;1.20;;
48647;SDS011;34437;-33.956;151.076;2023-05-07T03:41:40;1.80;;;1.10;;
48647;SDS011;34437;-33.956;151.076;2023-05-07T03:44:02;1.40;;;1.00;;
48647;SDS011;34437;-33.956;151.076;2023-05-07T03:46:25;1.95;;;1.00;;
48647;SDS011;34437;-33.956;151.076;2023-05-07T03:48:48;3.22;;;1.10;;
48647;SDS011;34437;-33.956;151.076;2023-05-07T03:51:11;1.75;;;1.15;;
48647;SDS011;34437;-33.956;151.076;2023-05-07T03:53:33;0.82;;;0.70;;
48647;SDS011;34437;-33.956;151.076;2023-05-07T03:55:56;1.67;;;1.10;;
48647;SDS011;34437;-33.956;151.076;2023-05-07T03:58:18;2.08;;;1.50;;
48647;SDS011;34437;-33.956;151.076;2023-05-07T04:00:41;2.00;;;1.20;;
48647;SDS011;34437;-33.956;151.076;2023-05-07T04:03:04;1.98;;;1.25;;
48647;SDS011;34437;-33.956;151.076;2023-05-07T04:05:26;2.88;;;1.55;;
48647;SDS011;34437;-33.956;151.076;2023-05-07T04:07:48;1.83;;;1.35;;
48647;SDS011;34437;-33.956;151.076;2023-05-07T04:10:11;2.67;;;1.50;;
48647;SDS011;34437;-33.956;151.076;2023-05-07T04:12:34;2.33;;;1.23;;
48647;SDS011;34437;-33.956;151.076;2023-05-07T04:14:56;2.15;;;1.40;;
48647;SDS011;34437;-33.956;151.076;2023-05-07T04:17:19;1.10;;;1.00;;
48647;SDS011;34437;-33.956;151.076;2023-05-07T04:19:41;2.45;;;1.33;;
48647;SDS011;34437;-33.956;151.076;2023-05-07T04:22:06;1.30;;;1.20;;
48647;SDS011;34437;-33.956;151.076;2023-05-07T04:24:30;1.77;;;1.40;;
48647;SDS011;34437;-33.956;151.076;2023-05-07T04:26:56;2.08;;;1.30;;
48647;SDS011;34437;-33.956;151.076;2023-05-07T04:29:19;2.85;;;1.40;;
48647;SDS011;34437;-33.956;151.076;2023-05-07T04:31:42;1.73;;;1.35;;
48647;SDS011;34437;-33.956;151.076;2023-05-07T04:34:07;1.60;;;1.40;;
48647;SDS011;34437;-33.956;151.076;2023-05-07T04:36:30;3.95;;;1.35;;
48647;SDS011;34437;-33.956;151.076;2023-05-07T04:38:53;1.75;;;1.30;;
48647;SDS011;34437;-33.956;151.076;2023-05-07T04:41:16;1.85;;;1.15;;
48647;SDS011;34437;-33.956;151.076;2023-05-07T04:43:39;2.22;;;1.13;;
48647;SDS011;34437;-33.956;151.076;2023-05-07T04:46:02;1.73;;;1.17;;
48647;SDS011;34437;-33.956;151.076;2023-05-07T04:48:25;1.08;;;0.80;;
48647;SDS011;34437;-33.956;151.076;2023-05-07T04:50:48;3.33;;;1.17;;
48647;SDS011;34437;-33.956;151.076;2023-05-07T04:53:11;1.70;;;1.10;;
48647;SDS011;34437;-33.956;151.076;2023-05-07T04:55:34;1.48;;;1.00;;
48647;SDS011;34437;-33.956;151.076;2023-05-07T04:57:57;2.17;;;1.23;;
48647;SDS011;34437;-33.956;151.076;2023-05-07T05:00:21;1.83;;;1.00;;
48647;SDS011;34437;-33.956;151.076;2023-05-07T05:02:44;1.20;;;0.90;;
48647;SDS011;34437;-33.956;151.076;2023-05-07T05:05:06;1.05;;;0.90;;
48647;SDS011;34437;-33.956;151.076;2023-05-07T05:07:29;1.40;;;0.95;;
48647;SDS011;34437;-33.956;151.076;2023-05-07T05:09:52;0.93;;;0.75;;
48647;SDS011;34437;-33.956;151.076;2023-05-07T05:12:15;0.70;;;0.70;;
48647;SDS011;34437;-33.956;151.076;2023-05-07T05:14:37;1.00;;;0.77;;
48647;SDS011;34437;-33.956;151.076;2023-05-07T05:16:59;1.23;;;0.80;;
48647;SDS011;34437;-33.956;151.076;2023-05-07T05:19:22;2.15;;;0.90;;
48647;SDS011;34437;-33.956;151.076;2023-05-07T05:21:44;1.58;;;1.00;;
48647;SDS011;34437;-33.956;151.076;2023-05-07T05:24:07;1.00;;;0.90;;
48647;SDS011;34437;-33.956;151.076;2023-05-07T05:26:30;0.75;;;0.73;;
48647;SDS011;34437;-33.956;151.076;2023-05-07T05:28:52;2.30;;;1.08;;
48647;SDS011;34437;-33.956;151.076;2023-05-07T05:31:15;1.05;;;0.90;;
48647;SDS011;34437;-33.956;151.076;2023-05-07T05:33:38;1.47;;;0.77;;
48647;SDS011;34437;-33.956;151.076;2023-05-07T05:36:00;1.67;;;1.08;;
48647;SDS011;34437;-33.956;151.076;2023-05-07T05:38:23;0.82;;;0.82;;
48647;SDS011;34437;-33.956;151.076;2023-05-07T05:40:46;1.37;;;0.97;;
48647;SDS011;34437;-33.956;151.076;2023-05-07T05:43:09;1.48;;;0.88;;
48647;SDS011;34437;-33.956;151.076;2023-05-07T05:45:31;2.38;;;0.90;;
48647;SDS011;34437;-33.956;151.076;2023-05-07T05:47:55;1.88;;;0.98;;
48647;SDS011;34437;-33.956;151.076;2023-05-07T05:50:18;1.92;;;1.10;;
48647;SDS011;34437;-33.956;151.076;2023-05-07T05:52:40;2.38;;;1.10;;
48647;SDS011;34437;-33.956;151.076;2023-05-07T05:55:03;1.27;;;0.80;;
48647;SDS011;34437;-33.956;151.076;2023-05-07T05:57:26;0.73;;;0.73;;
48647;SDS011;34437;-33.956;151.076;2023-05-07T05:59:48;1.75;;;1.15;;
48647;SDS011;34437;-33.956;151.076;2023-05-07T06:02:10;1.20;;;0.98;;
48647;SDS011;34437;-33.956;151.076;2023-05-07T06:04:33;0.90;;;0.80;;
48647;SDS011;34437;-33.956;151.076;2023-05-07T06:06:55;1.60;;;0.80;;
48647;SDS011;34437;-33.956;151.076;2023-05-07T06:09:18;0.90;;;0.80;;
48647;SDS011;34437;-33.956;151.076;2023-05-07T06:11:41;2.05;;;0.98;;
48647;SDS011;34437;-33.956;151.076;2023-05-07T06:14:03;1.08;;;0.98;;
48647;SDS011;34437;-33.956;151.076;2023-05-07T06:16:25;2.30;;;0.90;;
48647;SDS011;34437;-33.956;151.076;2023-05-07T06:18:48;1.77;;;1.20;;
48647;SDS011;34437;-33.956;151.076;2023-05-07T06:21:10;1.40;;;0.93;;
48647;SDS011;34437;-33.956;151.076;2023-05-07T06:23:34;3.60;;;1.85;;
48647;SDS011;34437;-33.956;151.076;2023-05-07T06:25:57;3.65;;;2.60;;
48647;SDS011;34437;-33.956;151.076;2023-05-07T06:28:19;6.93;;;4.03;;
48647;SDS011;34437;-33.956;151.076;2023-05-07T06:30:42;6.70;;;4.68;;
48647;SDS011;34437;-33.956;151.076;2023-05-07T06:33:04;9.88;;;7.25;;
48647;SDS011;34437;-33.956;151.076;2023-05-07T06:35:27;16.33;;;14.63;;
48647;SDS011;34437;-33.956;151.076;2023-05-07T06:37:49;27.95;;;20.55;;
48647;SDS011;34437;-33.956;151.076;2023-05-07T06:40:11;28.35;;;24.75;;
48647;SDS011;34437;-33.956;151.076;2023-05-07T06:42:35;30.55;;;26.08;;
48647;SDS011;34437;-33.956;151.076;2023-05-07T06:44:58;33.13;;;27.52;;
48647;SDS011;34437;-33.956;151.076;2023-05-07T06:47:20;31.40;;;28.27;;
48647;SDS011;34437;-33.956;151.076;2023-05-07T06:49:43;33.35;;;29.85;;
48647;SDS011;34437;-33.956;151.076;2023-05-07T06:52:05;34.40;;;28.85;;
48647;SDS011;34437;-33.956;151.076;2023-05-07T06:54:28;32.95;;;29.27;;
48647;SDS011;34437;-33.956;151.076;2023-05-07T06:56:51;32.33;;;28.90;;
48647;SDS011;34437;-33.956;151.076;2023-05-07T06:59:13;32.05;;;28.65;;
48647;SDS011;34437;-33.956;151.076;2023-05-07T07:01:36;31.63;;;27.77;;
48647;SDS011;34437;-33.956;151.076;2023-05-07T07:03:58;30.38;;;26.80;;
48647;SDS011;34437;-33.956;151.076;2023-05-07T07:06:21;28.60;;;25.25;;
48647;SDS011;34437;-33.956;151.076;2023-05-07T07:08:43;27.63;;;24.70;;
48647;SDS011;34437;-33.956;151.076;2023-05-07T07:11:08;27.92;;;23.88;;
48647;SDS011;34437;-33.956;151.076;2023-05-07T07:13:31;27.20;;;24.30;;
48647;SDS011;34437;-33.956;151.076;2023-05-07T07:15:53;26.55;;;23.92;;
48647;SDS011;34437;-33.956;151.076;2023-05-07T07:18:16;25.27;;;22.58;;
48647;SDS011;34437;-33.956;151.076;2023-05-07T07:20:38;24.17;;;21.60;;
48647;SDS011;34437;-33.956;151.076;2023-05-07T07:23:01;22.40;;;20.10;;
48647;SDS011;34437;-33.956;151.076;2023-05-07T07:25:23;22.88;;;19.92;;
48647;SDS011;34437;-33.956;151.076;2023-05-07T07:27:45;22.15;;;19.23;;
48647;SDS011;34437;-33.956;151.076;2023-05-07T07:30:08;20.13;;;18.13;;
48647;SDS011;34437;-33.956;151.076;2023-05-07T07:32:30;20.05;;;18.08;;
48647;SDS011;34437;-33.956;151.076;2023-05-07T07:34:54;20.85;;;17.05;;
48647;SDS011;34437;-33.956;151.076;2023-05-07T07:37:16;18.92;;;17.00;;
48647;SDS011;34437;-33.956;151.076;2023-05-07T07:39:38;18.48;;;16.35;;
48647;SDS011;34437;-33.956;151.076;2023-05-07T07:42:01;16.60;;;14.80;;
48647;SDS011;34437;-33.956;151.076;2023-05-07T07:44:24;18.73;;;15.10;;
48647;SDS011;34437;-33.956;151.076;2023-05-07T07:46:47;15.07;;;13.40;;
48647;SDS011;34437;-33.956;151.076;2023-05-07T07:49:09;15.63;;;13.57;;
48647;SDS011;34437;-33.956;151.076;2023-05-07T07:51:32;14.70;;;13.05;;
48647;SDS011;34437;-33.956;151.076;2023-05-07T07:53:54;14.27;;;12.85;;
48647;SDS011;34437;-33.956;151.076;2023-05-07T07:56:18;13.95;;;12.27;;
48647;SDS011;34437;-33.956;151.076;2023-05-07T07:58:41;12.88;;;11.57;;
48647;SDS011;34437;-33.956;151.076;2023-05-07T08:01:03;12.18;;;10.98;;
48647;SDS011;34437;-33.956;151.076;2023-05-07T08:03:26;11.77;;;10.43;;
48647;SDS011;34437;-33.956;151.076;2023-05-07T08:05:49;12.38;;;10.52;;
48647;SDS011;34437;-33.956;151.076;2023-05-07T08:08:11;10.55;;;9.27;;
48647;SDS011;34437;-33.956;151.076;2023-05-07T08:10:34;10.18;;;9.18;;
48647;SDS011;34437;-33.956;151.076;2023-05-07T08:12:59;10.02;;;8.70;;
48647;SDS011;34437;-33.956;151.076;2023-05-07T08:15:22;9.88;;;8.88;;
48647;SDS011;34437;-33.956;151.076;2023-05-07T08:17:44;9.80;;;8.75;;
48647;SDS011;34437;-33.956;151.076;2023-05-07T08:20:07;9.05;;;8.15;;
48647;SDS011;34437;-33.956;151.076;2023-05-07T08:22:30;9.85;;;8.25;;
48647;SDS011;34437;-33.956;151.076;2023-05-07T08:24:52;8.88;;;7.97;;
48647;SDS011;34437;-33.956;151.076;2023-05-07T08:27:14;8.38;;;7.28;;
48647;SDS011;34437;-33.956;151.076;2023-05-07T08:29:37;9.20;;;7.60;;
48647;SDS011;34437;-33.956;151.076;2023-05-07T08:32:00;7.75;;;6.95;;
48647;SDS011;34437;-33.956;151.076;2023-05-07T08:34:22;8.20;;;6.40;;
48647;SDS011;34437;-33.956;151.076;2023-05-07T08:36:45;8.98;;;7.03;;
48647;SDS011;34437;-33.956;151.076;2023-05-07T08:39:09;7.35;;;6.30;;
48647;SDS011;34437;-33.956;151.076;2023-05-07T08:41:31;7.25;;;6.38;;
48647;SDS011;34437;-33.956;151.076;2023-05-07T08:43:54;6.80;;;5.65;;
48647;SDS011;34437;-33.956;151.076;2023-05-07T08:46:21;6.10;;;5.35;;
48647;SDS011;34437;-33.956;151.076;2023-05-07T08:48:43;7.72;;;5.78;;
48647;SDS011;34437;-33.956;151.076;2023-05-07T08:51:06;6.18;;;5.07;;
48647;SDS011;34437;-33.956;151.076;2023-05-07T08:53:30;6.70;;;5.25;;
48647;SDS011;34437;-33.956;151.076;2023-05-07T08:55:53;5.22;;;4.38;;
48647;SDS011;34437;-33.956;151.076;2023-05-07T08:58:16;5.93;;;4.72;;
48647;SDS011;34437;-33.956;151.076;2023-05-07T09:00:39;5.32;;;4.30;;
48647;SDS011;34437;-33.956;151.076;2023-05-07T09:03:03;5.13;;;4.13;;
48647;SDS011;34437;-33.956;151.076;2023-05-07T09:05:25;4.88;;;4.15;;
48647;SDS011;34437;-33.956;151.076;2023-05-07T09:07:47;5.22;;;3.80;;
48647;SDS011;34437;-33.956;151.076;2023-05-07T09:10:11;4.32;;;3.38;;
48647;SDS011;34437;-33.956;151.076;2023-05-07T09:12:34;4.88;;;3.70;;
48647;SDS011;34437;-33.956;151.076;2023-05-07T09:14:57;4.93;;;3.65;;
48647;SDS011;34437;-33.956;151.076;2023-05-07T09:17:20;5.35;;;3.92;;
48647;SDS011;34437;-33.956;151.076;2023-05-07T09:19:46;4.75;;;3.58;;
48647;SDS011;34437;-33.956;151.076;2023-05-07T09:22:09;4.55;;;3.45;;
48647;SDS011;34437;-33.956;151.076;2023-05-07T09:24:31;5.03;;;3.67;;
48647;SDS011;34437;-33.956;151.076;2023-05-07T09:26:58;4.55;;;3.55;;
48647;SDS011;34437;-33.956;151.076;2023-05-07T09:29:22;4.63;;;3.58;;
48647;SDS011;34437;-33.956;151.076;2023-05-07T09:31:44;3.70;;;3.10;;
48647;SDS011;34437;-33.956;151.076;2023-05-07T09:34:07;3.72;;;3.20;;
48647;SDS011;34437;-33.956;151.076;2023-05-07T09:36:29;4.60;;;3.00;;
48647;SDS011;34437;-33.956;151.076;2023-05-07T09:38:53;4.22;;;3.13;;
48647;SDS011;34437;-33.956;151.076;2023-05-07T09:41:17;4.65;;;2.88;;
48647;SDS011;34437;-33.956;151.076;2023-05-07T09:43:40;3.95;;;2.97;;
48647;SDS011;34437;-33.956;151.076;2023-05-07T09:46:07;3.20;;;2.42;;
48647;SDS011;34437;-33.956;151.076;2023-05-07T09:51:03;3.30;;;2.50;;
48647;SDS011;34437;-33.956;151.076;2023-05-07T09:53:47;3.10;;;2.25;;
48647;SDS011;34437;-33.956;151.076;2023-05-07T09:56:12;2.88;;;2.33;;
48647;SDS011;34437;-33.956;151.076;2023-05-07T09:58:38;2.67;;;2.20;;
48647;SDS011;34437;-33.956;151.076;2023-05-07T10:01:02;2.78;;;2.22;;
48647;SDS011;34437;-33.956;151.076;2023-05-07T10:03:26;2.65;;;2.25;;
48647;SDS011;34437;-33.956;151.076;2023-05-07T10:05:52;2.80;;;2.20;;
48647;SDS011;34437;-33.956;151.076;2023-05-07T10:08:16;2.67;;;2.10;;
48647;SDS011;34437;-33.956;151.076;2023-05-07T10:10:40;2.50;;;1.90;;
48647;SDS011;34437;-33.956;151.076;2023-05-07T10:13:03;2.78;;;2.10;;
48647;SDS011;34437;-33.956;151.076;2023-05-07T10:15:30;2.60;;;2.05;;
48647;SDS011;34437;-33.956;151.076;2023-05-07T10:17:53;2.80;;;2.08;;
48647;SDS011;34437;-33.956;151.076;2023-05-07T10:20:16;2.60;;;1.83;;
48647;SDS011;34437;-33.956;151.076;2023-05-07T10:22:43;2.60;;;1.90;;
48647;SDS011;34437;-33.956;151.076;2023-05-07T10:25:09;2.17;;;1.70;;
48647;SDS011;34437;-33.956;151.076;2023-05-07T10:27:39;2.90;;;1.88;;
48647;SDS011;34437;-33.956;151.076;2023-05-07T10:32:49;2.10;;;1.77;;
48647;SDS011;34437;-33.956;151.076;2023-05-07T10:35:16;2.10;;;1.70;;
48647;SDS011;34437;-33.956;151.076;2023-05-07T10:37:47;1.92;;;1.70;;
48647;SDS011;34437;-33.956;151.076;2023-05-07T10:40:10;1.75;;;1.50;;
48647;SDS011;34437;-33.956;151.076;2023-05-07T10:42:34;1.98;;;1.70;;
48647;SDS011;34437;-33.956;151.076;2023-05-07T10:44:56;1.67;;;1.40;;
48647;SDS011;34437;-33.956;151.076;2023-05-07T10:47:19;1.80;;;1.45;;
48647;SDS011;34437;-33.956;151.076;2023-05-07T10:52:13;1.65;;;1.25;;
48647;SDS011;34437;-33.956;151.076;2023-05-07T10:54:40;1.60;;;1.50;;
48647;SDS011;34437;-33.956;151.076;2023-05-07T10:59:50;2.75;;;2.35;;
48647;SDS011;34437;-33.956;151.076;2023-05-07T11:02:14;4.22;;;1.45;;
48647;SDS011;34437;-33.956;151.076;2023-05-07T11:04:37;3.83;;;1.48;;
48647;SDS011;34437;-33.956;151.076;2023-05-07T11:12:17;4.40;;;1.40;;
48647;SDS011;34437;-33.956;151.076;2023-05-07T11:14:59;2.85;;;1.40;;
48647;SDS011;34437;-33.956;151.076;2023-05-07T11:17:21;4.05;;;1.50;;
48647;SDS011;34437;-33.956;151.076;2023-05-07T11:19:50;3.72;;;1.30;;
48647;SDS011;34437;-33.956;151.076;2023-05-07T11:22:56;2.03;;;1.40;;
48647;SDS011;34437;-33.956;151.076;2023-05-07T11:25:03;6.93;;;1.77;;
48647;SDS011;34437;-33.956;151.076;2023-05-07T11:27:27;4.88;;;1.15;;
48647;SDS011;34437;-33.956;151.076;2023-05-07T11:29:50;8.05;;;1.63;;
48647;SDS011;34437;-33.956;151.076;2023-05-07T11:32:12;2.67;;;1.27;;
48647;SDS011;34437;-33.956;151.076;2023-05-07T11:34:35;5.40;;;1.67;;
48647;SDS011;34437;-33.956;151.076;2023-05-07T11:36:58;2.13;;;1.30;;
48647;SDS011;34437;-33.956;151.076;2023-05-07T11:39:24;2.92;;;1.08;;
48647;SDS011;34437;-33.956;151.076;2023-05-07T11:41:48;1.65;;;1.00;;
48647;SDS011;34437;-33.956;151.076;2023-05-07T11:44:10;1.80;;;0.80;;
48647;SDS011;34437;-33.956;151.076;2023-05-07T11:46:32;1.52;;;0.90;;
48647;SDS011;34437;-33.956;151.076;2023-05-07T11:48:56;1.27;;;0.90;;
48647;SDS011;34437;-33.956;151.076;2023-05-07T11:51:19;10.02;;;1.88;;
48647;SDS011;34437;-33.956;151.076;2023-05-07T11:53:43;2.53;;;1.17;;
48647;SDS011;34437;-33.956;151.076;2023-05-07T11:56:14;2.08;;;1.17;;
48647;SDS011;34437;-33.956;151.076;2023-05-07T11:58:37;2.28;;;0.73;;
48647;SDS011;34437;-33.956;151.076;2023-05-07T12:01:01;3.37;;;1.60;;
48647;SDS011;34437;-33.956;151.076;2023-05-07T12:03:23;1.90;;;0.88;;
48647;SDS011;34437;-33.956;151.076;2023-05-07T12:05:46;1.70;;;0.90;;
48647;SDS011;34437;-33.956;151.076;2023-05-07T12:08:13;3.45;;;0.75;;
48647;SDS011;34437;-33.956;151.076;2023-05-07T12:10:42;3.70;;;0.90;;
48647;SDS011;34437;-33.956;151.076;2023-05-07T12:13:13;3.13;;;0.93;;
48647;SDS011;34437;-33.956;151.076;2023-05-07T12:15:36;0.93;;;0.70;;
48647;SDS011;34437;-33.956;151.076;2023-05-07T12:17:59;10.35;;;2.20;;
48647;SDS011;34437;-33.956;151.076;2023-05-07T12:20:22;14.63;;;1.98;;
48647;SDS011;34437;-33.956;151.076;2023-05-07T12:22:45;5.60;;;1.02;;
48647;SDS011;34437;-33.956;151.076;2023-05-07T12:25:09;5.45;;;1.10;;
48647;SDS011;34437;-33.956;151.076;2023-05-07T12:27:31;4.25;;;1.00;;
48647;SDS011;34437;-33.956;151.076;2023-05-07T12:29:54;17.25;;;2.33;;
48647;SDS011;34437;-33.956;151.076;2023-05-07T12:34:41;13.10;;;1.92;;
48647;SDS011;34437;-33.956;151.076;2023-05-07T12:37:05;10.05;;;2.60;;
48647;SDS011;34437;-33.956;151.076;2023-05-07T12:39:30;11.77;;;2.60;;
48647;SDS011;34437;-33.956;151.076;2023-05-07T12:41:57;10.88;;;1.42;;
48647;SDS011;34437;-33.956;151.076;2023-05-07T12:44:23;4.03;;;1.25;;
48647;SDS011;34437;-33.956;151.076;2023-05-07T12:46:54;2.17;;;1.13;;
48647;SDS011;34437;-33.956;151.076;2023-05-07T12:49:16;7.72;;;1.00;;
48647;SDS011;34437;-33.956;151.076;2023-05-07T12:51:39;4.20;;;0.90;;
48647;SDS011;34437;-33.956;151.076;2023-05-07T12:54:01;6.03;;;1.38;;
48647;SDS011;34437;-33.956;151.076;2023-05-07T12:56:24;9.15;;;1.75;;
48647;SDS011;34437;-33.956;151.076;2023-05-07T12:58:48;8.05;;;1.45;;
48647;SDS011;34437;-33.956;151.076;2023-05-07T13:01:10;6.07;;;1.55;;
48647;SDS011;34437;-33.956;151.076;2023-05-07T13:03:36;4.13;;;0.90;;
48647;SDS011;34437;-33.956;151.076;2023-05-07T13:06:00;6.07;;;1.42;;
48647;SDS011;34437;-33.956;151.076;2023-05-07T13:08:36;9.27;;;1.50;;
48647;SDS011;34437;-33.956;151.076;2023-05-07T13:11:01;13.85;;;1.55;;
48647;SDS011;34437;-33.956;151.076;2023-05-07T13:13:25;9.45;;;1.70;;
48647;SDS011;34437;-33.956;151.076;2023-05-07T13:15:47;4.32;;;1.05;;
48647;SDS011;34437;-33.956;151.076;2023-05-07T13:18:10;8.15;;;1.35;;
48647;SDS011;34437;-33.956;151.076;2023-05-07T13:20:32;12.48;;;2.10;;
48647;SDS011;34437;-33.956;151.076;2023-05-07T13:22:55;8.23;;;0.90;;
48647;SDS011;34437;-33.956;151.076;2023-05-07T13:25:17;5.05;;;1.25;;
48647;SDS011;34437;-33.956;151.076;2023-05-07T13:27:42;4.25;;;1.00;;
48647;SDS011;34437;-33.956;151.076;2023-05-07T13:30:05;2.45;;;0.90;;
48647;SDS011;34437;-33.956;151.076;2023-05-07T13:32:28;3.08;;;1.08;;
48647;SDS011;34437;-33.956;151.076;2023-05-07T13:34:51;7.07;;;1.50;;
48647;SDS011;34437;-33.956;151.076;2023-05-07T13:37:14;4.75;;;1.10;;
48647;SDS011;34437;-33.956;151.076;2023-05-07T13:39:36;5.03;;;1.20;;
48647;SDS011;34437;-33.956;151.076;2023-05-07T13:41:59;3.17;;;1.20;;
48647;SDS011;34437;-33.956;151.076;2023-05-07T13:44:21;6.28;;;0.95;;
48647;SDS011;34437;-33.956;151.076;2023-05-07T13:46:43;3.55;;;0.90;;
48647;SDS011;34437;-33.956;151.076;2023-05-07T13:49:06;5.38;;;1.02;;
48647;SDS011;34437;-33.956;151.076;2023-05-07T13:51:28;3.58;;;0.77;;
48647;SDS011;34437;-33.956;151.076;2023-05-07T13:53:51;3.25;;;0.75;;
48647;SDS011;34437;-33.956;151.076;2023-05-07T13:56:14;5.40;;;0.80;;
48647;SDS011;34437;-33.956;151.076;2023-05-07T13:58:37;2.33;;;0.75;;
48647;SDS011;34437;-33.956;151.076;2023-05-07T14:00:59;3.55;;;0.93;;